Aérodrome :
LOGIN :

S'inscrire | Disclaimer

   EN    FR    IT 

 










Légende :    VFR   VFR Marginal   IFR   IFR Intensif   IFR Très Intensif
Visi : 
Plafond : 
>= 8 km
>= 3000ft
5 à 8 km
1000 à 3000 ft
1500m à 5 km
500 à 1000 ft
800 à 1500m
200 à 500 ft
< 800m
< 200 ft
Symboles :   Orages  Brouillard  Fortes neiges  Fortes précipitations  Vent > 20 kt
SIGMETs :   Divers  Orages  Givrage  Turbulence  Onde Orograph.  Cendres Volcan.






- Altitude de l'aérodrome : 26 ft


ETNT - Wittmundhaven AB

DERNIER METAR :
  • 221020Z 34009KT 9999 FEW025 SCT037 BKN190 15/08 Q1017 BLU BLU

METARs EXPIRÉS :
  • 220920Z 35009KT 9999 SCT025 BKN040 BKN220 15/09 Q1017 BLU BLU+ TEMPO BLU
  • 220820Z 34010KT 9999 SCT025 SCT040 BKN220 15/10 Q1016 BLU+BLU+ TEMPO BLU
  • 220720Z 36009KT 9999 SCT025 SCT040 BKN220 15/10 Q1016 BLU+BLU+ TEMPO BLU

TAF TAF ETNT
Valide du 22 à 08h jusqu'au 22 à 17h UTC


220700Z 2208/2217 32010KT 9999 NSW SCT020 SCT040 BKN250
TEMPO 2208/2217 32013KT 9999 NSW SCT020 BKN040 BY ETGL



MET'MAP, la Météo Aéronautique d'un coup d'oeil ! - Copyright ORBIFLY Décembre 2007 - Disclaimer

ORBIFLY MET'MAP TEAM :

Programmation & Développement : Alexandra Zaïnal
Sur une idée originale de : Baudouin d'Aumeries
Assistance à la programmation : Marc-Olivier Méhu
Soutien technique & logistique : Manuel Goepfert

Contact : metmap@orbifly.com




SOURCES & CREDITS :

   NOAA